createdAt,value
2022-11-16T00:00:17.659Z,17.55
2022-11-16T00:02:44.755Z,20.37
2022-11-16T00:05:11.930Z,18.30
2022-11-16T00:07:39.364Z,19.38
2022-11-16T00:10:06.823Z,20.55
2022-11-16T00:12:34.153Z,19.67
2022-11-16T00:15:01.297Z,19.77
2022-11-16T00:17:28.568Z,17.10
2022-11-16T00:19:55.841Z,20.95
2022-11-16T00:22:23.079Z,16.60
2022-11-16T00:24:50.328Z,16.13
2022-11-16T00:27:17.548Z,17.40
2022-11-16T00:29:44.828Z,22.63
2022-11-16T00:32:12.492Z,18.90
2022-11-16T00:34:40.381Z,20.00
2022-11-16T00:37:07.606Z,20.65
2022-11-16T00:39:34.821Z,21.83
2022-11-16T00:42:02.009Z,21.30
2022-11-16T00:44:29.251Z,16.45
2022-11-16T00:46:56.410Z,20.85
2022-11-16T00:49:23.645Z,21.02
2022-11-16T00:51:50.778Z,19.73
2022-11-16T00:54:17.933Z,18.30
2022-11-16T00:56:45.079Z,18.30
2022-11-16T00:59:12.238Z,18.23
2022-11-16T01:01:39.534Z,18.30
2022-11-16T01:04:06.759Z,18.17
2022-11-16T01:06:33.988Z,19.65
2022-11-16T01:09:01.833Z,18.17
2022-11-16T01:11:47.776Z,20.77
2022-11-16T01:14:14.930Z,16.50
2022-11-16T01:16:42.117Z,19.23
2022-11-16T01:19:09.771Z,21.08
2022-11-16T01:21:37.004Z,18.58
2022-11-16T01:24:04.406Z,17.60
2022-11-16T01:26:31.572Z,17.95
2022-11-16T01:28:59.591Z,20.00
2022-11-16T01:31:26.773Z,20.80
2022-11-16T01:33:54.964Z,18.73
2022-11-16T01:36:22.108Z,17.55
2022-11-16T01:38:50.526Z,20.30
2022-11-16T01:41:22.044Z,18.70
2022-11-16T01:43:56.918Z,22.33
2022-11-16T01:46:24.373Z,20.42
2022-11-16T01:48:54.533Z,23.30
2022-11-16T01:51:22.472Z,20.42
2022-11-16T01:53:49.971Z,20.40
2022-11-16T01:56:17.162Z,21.30
2022-11-16T01:58:44.216Z,20.08
2022-11-16T02:01:11.295Z,20.33
2022-11-16T02:03:39.081Z,21.70
2022-11-16T02:06:26.523Z,22.73
2022-11-16T02:09:22.891Z,21.92
2022-11-16T02:11:52.714Z,22.13
2022-11-16T02:14:42.600Z,21.60
2022-11-16T02:17:48.268Z,21.30
2022-11-16T02:20:33.815Z,21.57
2022-11-16T02:23:27.051Z,23.88
2022-11-16T02:26:12.953Z,21.40
2022-11-16T02:28:43.189Z,20.85
2022-11-16T02:31:13.746Z,21.50
2022-11-16T02:33:41.860Z,21.77
2022-11-16T02:36:11.406Z,22.30
2022-11-16T02:38:45.211Z,28.15
2022-11-16T02:41:14.911Z,22.77
2022-11-16T02:43:43.525Z,24.98
2022-11-16T02:46:14.246Z,22.97
2022-11-16T02:48:44.152Z,26.15
2022-11-16T02:51:11.834Z,22.42
2022-11-16T02:53:41.919Z,29.23
2022-11-16T02:56:12.487Z,25.48
2022-11-16T02:58:39.774Z,25.00
2022-11-16T03:01:13.584Z,26.77
2022-11-16T03:03:43.406Z,22.02
2022-11-16T03:06:13.845Z,27.25
2022-11-16T03:08:44.264Z,27.83
2022-11-16T03:11:30.781Z,24.57
2022-11-16T03:14:04.590Z,23.48
2022-11-16T03:16:41.055Z,30.30
2022-11-16T03:19:10.642Z,27.60
2022-11-16T03:21:40.109Z,28.90
2022-11-16T03:24:08.333Z,29.57
2022-11-16T03:26:50.542Z,26.08
2022-11-16T03:29:25.897Z,27.48
2022-11-16T03:31:55.901Z,26.48
2022-11-16T03:34:26.133Z,23.92
2022-11-16T03:36:54.333Z,23.93
2022-11-16T03:39:23.392Z,26.58
2022-11-16T03:41:50.630Z,21.67
2022-11-16T03:44:19.095Z,24.70
2022-11-16T03:46:46.911Z,19.08
2022-11-16T03:49:14.144Z,19.57
2022-11-16T03:51:41.441Z,23.13
2022-11-16T03:54:08.606Z,21.38
2022-11-16T03:56:35.658Z,18.80
2022-11-16T03:59:02.738Z,19.45
2022-11-16T04:01:29.820Z,19.40
2022-11-16T04:03:56.899Z,22.50
2022-11-16T04:06:43.252Z,20.70
2022-11-16T04:09:29.633Z,20.65
2022-11-16T04:12:15.833Z,21.35
2022-11-16T04:15:02.339Z,15.27
2022-11-16T04:17:48.405Z,18.67
2022-11-16T04:20:34.731Z,19.02
2022-11-16T04:23:30.185Z,15.25
2022-11-16T04:25:57.499Z,16.20
2022-11-16T04:28:25.875Z,17.47
2022-11-16T04:31:12.589Z,18.05
2022-11-16T04:33:58.670Z,18.55
2022-11-16T04:36:44.672Z,12.93
2022-11-16T04:39:11.918Z,13.68
2022-11-16T04:41:57.704Z,12.80
2022-11-16T04:44:29.865Z,17.95
2022-11-16T04:47:06.541Z,14.75
2022-11-16T04:49:33.896Z,14.55
2022-11-16T04:52:01.313Z,16.55
2022-11-16T04:54:28.509Z,12.93
2022-11-16T04:56:55.956Z,15.15
2022-11-16T04:59:23.154Z,16.92
2022-11-16T05:02:08.485Z,16.95
2022-11-16T05:04:36.340Z,14.43
2022-11-16T05:07:03.634Z,15.20
2022-11-16T05:09:30.737Z,15.13
2022-11-16T05:11:57.770Z,14.00
2022-11-16T05:14:24.926Z,13.63
2022-11-16T05:16:51.978Z,14.07
2022-11-16T05:19:37.871Z,17.33
2022-11-16T05:22:05.097Z,16.92
2022-11-16T05:24:35.348Z,16.58
2022-11-16T05:27:04.084Z,15.20
2022-11-16T05:29:31.462Z,17.48
2022-11-16T05:31:59.352Z,18.93
2022-11-16T05:34:26.806Z,20.13
2022-11-16T05:36:53.973Z,22.40
2022-11-16T05:39:21.277Z,19.85
2022-11-16T05:41:48.936Z,19.90
2022-11-16T05:44:16.313Z,25.07
2022-11-16T05:46:44.269Z,26.60
2022-11-16T05:49:11.963Z,22.88
2022-11-16T05:51:40.341Z,22.63
2022-11-16T05:54:07.847Z,26.15
2022-11-16T05:56:35.280Z,24.27
2022-11-16T05:59:02.724Z,27.25
2022-11-16T06:01:29.823Z,25.67
2022-11-16T06:03:59.351Z,22.17
2022-11-16T06:06:26.529Z,26.55
2022-11-16T06:08:53.598Z,25.70
2022-11-16T06:11:21.002Z,27.33
2022-11-16T06:13:48.200Z,26.80
2022-11-16T06:16:15.397Z,28.92
2022-11-16T06:18:43.959Z,28.48
2022-11-16T06:21:11.482Z,28.90
2022-11-16T06:23:38.893Z,24.88
2022-11-16T06:26:06.656Z,32.13
2022-11-16T06:28:34.253Z,28.40
2022-11-16T06:31:01.934Z,26.92
2022-11-16T06:33:33.322Z,26.87
2022-11-16T06:36:01.062Z,26.50
2022-11-16T06:38:28.314Z,24.23
2022-11-16T06:40:57.048Z,25.75
2022-11-16T06:43:24.643Z,21.30
2022-11-16T06:45:52.929Z,26.07
2022-11-16T06:48:20.593Z,22.02
2022-11-16T06:50:51.955Z,23.40
2022-11-16T06:53:19.396Z,26.98
2022-11-16T06:55:46.535Z,18.75
2022-11-16T06:58:13.676Z,24.87
2022-11-16T07:00:41.039Z,20.00
2022-11-16T07:03:08.249Z,17.30
2022-11-16T07:05:35.643Z,20.25
2022-11-16T07:08:03.864Z,21.38
2022-11-16T07:10:31.075Z,18.87
2022-11-16T07:12:58.257Z,18.27
2022-11-16T07:15:25.465Z,14.07
2022-11-16T07:17:52.796Z,13.00
2022-11-16T07:20:20.970Z,17.88
2022-11-16T07:22:48.155Z,12.87
2022-11-16T07:25:15.417Z,15.05
2022-11-16T07:27:42.558Z,13.60
2022-11-16T07:30:10.043Z,13.32
2022-11-16T07:32:39.825Z,10.02
2022-11-16T07:35:07.291Z,14.83
2022-11-16T07:37:34.422Z,10.32
2022-11-16T07:40:01.579Z,10.52
2022-11-16T07:42:28.833Z,10.73
2022-11-16T07:44:56.071Z,10.13
2022-11-16T07:47:23.213Z,9.97
2022-11-16T07:49:50.485Z,8.77
2022-11-16T07:52:17.633Z,9.40
2022-11-16T07:54:44.854Z,7.50
2022-11-16T07:57:12.141Z,9.98
2022-11-16T07:59:39.378Z,8.17
2022-11-16T08:02:06.878Z,9.43
2022-11-16T08:04:34.174Z,12.68
2022-11-16T08:07:01.485Z,11.02
2022-11-16T08:09:28.674Z,11.15
2022-11-16T08:11:56.065Z,13.10
2022-11-16T08:14:23.494Z,14.30
2022-11-16T08:16:50.874Z,12.15
2022-11-16T08:19:18.229Z,9.55
2022-11-16T08:21:45.819Z,10.40
2022-11-16T08:24:13.126Z,10.60
2022-11-16T08:26:40.414Z,12.57
2022-11-16T08:29:07.655Z,8.50
2022-11-16T08:31:34.993Z,8.15
2022-11-16T08:34:02.339Z,8.88
2022-11-16T08:36:29.574Z,9.60
2022-11-16T08:38:56.950Z,10.60
2022-11-16T08:41:24.284Z,14.77
2022-11-16T08:43:53.217Z,9.52
2022-11-16T08:46:21.262Z,13.10
2022-11-16T08:48:48.466Z,13.10
2022-11-16T08:51:19.472Z,10.88
2022-11-16T08:53:48.199Z,9.75
2022-11-16T08:56:16.311Z,12.40
2022-11-16T08:58:44.213Z,12.82
2022-11-16T09:01:16.355Z,12.77
2022-11-16T09:03:43.683Z,9.40
2022-11-16T09:06:11.324Z,13.70
2022-11-16T09:08:39.626Z,12.45
2022-11-16T09:11:07.489Z,8.63
2022-11-16T09:13:34.746Z,8.90
2022-11-16T09:16:02.600Z,12.55
2022-11-16T09:18:30.069Z,9.57
2022-11-16T09:20:57.483Z,10.48
2022-11-16T09:23:25.676Z,10.30
2022-11-16T09:25:53.276Z,11.67
2022-11-16T09:28:20.728Z,9.98
2022-11-16T09:30:49.488Z,10.50
2022-11-16T09:33:16.629Z,10.82
2022-11-16T09:35:44.053Z,8.65
2022-11-16T09:38:16.003Z,7.93
2022-11-16T09:40:47.538Z,11.13
2022-11-16T09:43:20.808Z,9.73
2022-11-16T09:45:56.851Z,12.30
2022-11-16T09:48:24.614Z,12.30
2022-11-16T09:50:53.947Z,12.33
2022-11-16T09:53:34.065Z,10.30
2022-11-16T09:56:06.676Z,12.07
2022-11-16T09:58:41.573Z,8.07
2022-11-16T10:01:17.354Z,10.60
2022-11-16T10:03:49.178Z,12.23
2022-11-16T10:06:30.097Z,10.73
2022-11-16T10:08:57.314Z,10.45
2022-11-16T10:11:43.404Z,14.93
2022-11-16T10:14:25.477Z,8.55
2022-11-16T10:16:55.561Z,6.67
2022-11-16T10:19:25.560Z,8.65
2022-11-16T10:22:10.803Z,9.05
2022-11-16T10:24:37.984Z,8.70
2022-11-16T10:27:05.132Z,8.20
2022-11-16T10:29:56.518Z,12.70
2022-11-16T10:32:30.767Z,7.25
2022-11-16T10:35:09.018Z,12.35
2022-11-16T10:37:38.115Z,11.52
2022-11-16T10:40:31.849Z,13.88
2022-11-16T10:43:25.343Z,7.57
2022-11-16T10:46:01.557Z,7.90
2022-11-16T10:48:37.235Z,11.35
2022-11-16T10:51:05.429Z,7.93
2022-11-16T10:53:36.986Z,10.23
2022-11-16T10:56:17.560Z,4.57
2022-11-16T10:59:01.244Z,7.78
2022-11-16T11:01:38.908Z,6.55
2022-11-16T11:04:21.283Z,5.70
2022-11-16T11:06:51.452Z,8.98
2022-11-16T11:09:35.695Z,10.33
2022-11-16T11:12:35.512Z,7.07
2022-11-16T11:15:02.779Z,7.05
2022-11-16T11:17:31.805Z,9.52
2022-11-16T11:20:04.338Z,6.90
2022-11-16T11:22:32.981Z,8.73
2022-11-16T11:25:03.257Z,6.07
2022-11-16T11:27:33.219Z,7.95
2022-11-16T11:30:01.064Z,6.95
2022-11-16T11:32:39.154Z,6.18
2022-11-16T11:35:06.796Z,9.70
2022-11-16T11:37:35.290Z,6.32
2022-11-16T11:40:22.253Z,7.65
2022-11-16T11:42:56.324Z,5.85
2022-11-16T11:45:33.752Z,6.45
2022-11-16T11:48:13.850Z,8.70
2022-11-16T11:50:44.016Z,6.65
2022-11-16T11:53:11.034Z,7.68
2022-11-16T11:55:38.437Z,6.68
2022-11-16T11:58:06.696Z,9.40
2022-11-16T12:00:42.093Z,9.20
2022-11-16T12:03:30.295Z,10.00
2022-11-16T12:06:00.315Z,10.15
2022-11-16T12:08:27.399Z,7.75
2022-11-16T12:11:14.739Z,8.23
2022-11-16T12:13:41.753Z,9.73
2022-11-16T12:16:11.747Z,6.97
2022-11-16T12:18:57.773Z,6.50
2022-11-16T12:21:34.205Z,5.68
2022-11-16T12:24:01.410Z,7.30
2022-11-16T12:26:28.715Z,6.47
2022-11-16T12:29:08.347Z,8.05
2022-11-16T12:31:50.996Z,9.82
2022-11-16T12:34:33.476Z,6.88
2022-11-16T12:37:04.980Z,5.50
2022-11-16T12:39:36.378Z,6.63
2022-11-16T12:42:03.663Z,7.00
2022-11-16T12:44:49.156Z,5.82
2022-11-16T12:47:18.936Z,6.30
2022-11-16T12:50:04.934Z,6.28
2022-11-16T12:52:41.996Z,4.07
2022-11-16T12:55:25.843Z,6.05
2022-11-16T12:58:10.895Z,5.88
2022-11-16T13:00:45.823Z,7.57
2022-11-16T13:03:15.915Z,4.90
2022-11-16T13:05:42.937Z,6.60
2022-11-16T13:08:17.016Z,3.67
2022-11-16T13:10:46.113Z,5.80
2022-11-16T13:13:35.943Z,5.75
2022-11-16T13:16:06.324Z,5.47
2022-11-16T13:18:33.887Z,5.30
2022-11-16T13:21:12.185Z,9.00
2022-11-16T13:24:05.801Z,4.40
2022-11-16T13:26:55.046Z,4.65
2022-11-16T13:29:30.239Z,5.63
2022-11-16T13:32:01.697Z,5.20
2022-11-16T13:34:37.106Z,5.22
2022-11-16T13:37:24.328Z,8.00
2022-11-16T13:39:51.635Z,2.92
2022-11-16T13:42:19.089Z,4.88
2022-11-16T13:44:51.388Z,5.60
2022-11-16T13:47:24.145Z,4.45
2022-11-16T13:50:02.523Z,6.90
2022-11-16T13:53:46.173Z,7.45
2022-11-16T13:55:39.807Z,7.25
2022-11-16T13:58:07.647Z,5.60
2022-11-16T14:00:40.050Z,4.45
2022-11-16T14:03:16.228Z,4.53
2022-11-16T14:05:43.515Z,3.83
2022-11-16T14:08:19.672Z,6.38
2022-11-16T14:11:07.088Z,7.10
2022-11-16T14:13:47.391Z,6.03
2022-11-16T14:16:21.576Z,4.97
2022-11-16T14:18:54.960Z,6.68
2022-11-16T14:21:37.590Z,10.93
2022-11-16T14:24:23.870Z,8.10
2022-11-16T14:27:07.704Z,5.88
2022-11-16T14:29:42.130Z,8.07
2022-11-16T14:32:20.850Z,6.80
2022-11-16T14:34:49.690Z,5.47
2022-11-16T14:37:37.047Z,5.73
2022-11-16T14:40:17.615Z,6.70
2022-11-16T14:45:47.082Z,7.55
2022-11-16T14:48:18.555Z,5.68
2022-11-16T14:50:47.672Z,6.83
2022-11-16T14:53:19.781Z,6.88
2022-11-16T14:55:46.973Z,8.13
2022-11-16T14:58:24.221Z,8.45
2022-11-16T15:00:59.142Z,8.43
2022-11-16T15:03:27.931Z,8.27
2022-11-16T15:05:59.998Z,5.93
2022-11-16T15:08:39.367Z,7.55
2022-11-16T15:11:09.472Z,7.38
2022-11-16T15:13:37.108Z,7.90
2022-11-16T15:16:16.218Z,5.27
2022-11-16T15:18:56.253Z,5.70
2022-11-16T15:21:23.804Z,6.53
2022-11-16T15:24:15.599Z,8.40
2022-11-16T15:26:38.947Z,7.45
2022-11-16T15:29:06.126Z,5.53
2022-11-16T15:31:34.989Z,6.25
2022-11-16T15:34:02.233Z,8.50
2022-11-16T15:36:33.285Z,6.60
2022-11-16T15:39:01.289Z,11.00
2022-11-16T15:41:29.348Z,8.60
2022-11-16T15:44:14.988Z,6.00
2022-11-16T15:46:43.618Z,7.93
2022-11-16T15:49:37.124Z,5.80
2022-11-16T15:52:04.579Z,6.53
2022-11-16T15:54:51.840Z,10.47
2022-11-16T15:57:19.987Z,9.07
2022-11-16T15:59:48.705Z,10.45
2022-11-16T16:02:23.448Z,12.13
2022-11-16T16:04:51.050Z,9.25
2022-11-16T16:07:37.501Z,7.00
2022-11-16T16:10:19.835Z,7.15
2022-11-16T16:12:57.304Z,12.60
2022-11-16T16:15:26.224Z,7.97
2022-11-16T16:17:56.127Z,6.93
2022-11-16T16:20:24.583Z,10.10
2022-11-16T16:22:52.333Z,7.70
2022-11-16T16:25:26.765Z,8.18
2022-11-16T16:27:53.900Z,8.20
2022-11-16T16:30:21.064Z,9.13
2022-11-16T16:32:51.978Z,10.80
2022-11-16T16:35:20.831Z,8.55
2022-11-16T16:37:52.752Z,7.18
2022-11-16T16:40:20.086Z,6.63
2022-11-16T16:42:50.849Z,7.40
2022-11-16T16:45:20.786Z,6.07
2022-11-16T16:47:47.938Z,7.60
2022-11-16T16:50:15.086Z,6.85
2022-11-16T16:52:42.807Z,6.97
2022-11-16T16:55:09.960Z,7.80
2022-11-16T16:57:37.106Z,7.30
2022-11-16T17:00:04.562Z,4.95
2022-11-16T17:02:31.782Z,8.10
2022-11-16T17:04:59.047Z,10.00
2022-11-16T17:07:26.258Z,9.45
2022-11-16T17:09:53.552Z,8.37
2022-11-16T17:12:20.720Z,9.23
2022-11-16T17:14:51.707Z,8.13
2022-11-16T17:17:19.594Z,7.20
2022-11-16T17:19:46.891Z,7.60
2022-11-16T17:22:14.933Z,6.77
2022-11-16T17:24:42.100Z,9.40
2022-11-16T17:27:09.250Z,8.32
2022-11-16T17:29:36.471Z,8.15
2022-11-16T17:32:03.815Z,7.60
2022-11-16T17:34:31.422Z,6.93
2022-11-16T17:36:58.550Z,10.57
2022-11-16T17:39:25.647Z,5.97
2022-11-16T17:41:52.762Z,9.70
2022-11-16T17:44:21.940Z,7.88
2022-11-16T17:46:49.524Z,11.60
2022-11-16T17:49:16.699Z,9.55
2022-11-16T17:51:44.326Z,6.90
2022-11-16T17:54:11.559Z,7.20
2022-11-16T17:56:38.835Z,8.75
2022-11-16T17:59:06.012Z,8.50
2022-11-16T18:01:33.415Z,8.98
2022-11-16T18:04:02.437Z,7.65
2022-11-16T18:06:29.748Z,10.00
2022-11-16T18:08:57.590Z,7.28
2022-11-16T18:11:26.239Z,7.83
2022-11-16T18:13:54.438Z,8.63
2022-11-16T18:16:22.596Z,8.23
2022-11-16T18:18:50.411Z,6.82
2022-11-16T18:21:20.604Z,9.20
2022-11-16T18:23:47.905Z,8.27
2022-11-16T18:26:16.024Z,7.28
2022-11-16T18:28:45.209Z,8.98
2022-11-16T18:31:13.690Z,8.35
2022-11-16T18:33:40.761Z,9.07
2022-11-16T18:36:08.520Z,10.10
2022-11-16T18:38:39.225Z,6.70
2022-11-16T18:41:12.363Z,8.43
2022-11-16T18:43:40.317Z,7.38
2022-11-16T18:46:07.390Z,8.85
2022-11-16T18:48:34.717Z,8.37
2022-11-16T18:51:02.593Z,9.82
2022-11-16T18:53:30.302Z,12.13
2022-11-16T18:55:58.384Z,5.63
2022-11-16T19:01:15.835Z,6.43
2022-11-16T19:03:43.195Z,6.28
2022-11-16T19:06:11.127Z,6.68
2022-11-16T19:08:39.006Z,7.00
2022-11-16T19:11:07.056Z,6.85
2022-11-16T19:13:34.433Z,11.67
2022-11-16T19:16:01.750Z,6.10
2022-11-16T19:18:28.963Z,6.60
2022-11-16T19:21:12.237Z,10.10
2022-11-16T19:23:43.418Z,5.43
2022-11-16T19:26:12.615Z,5.73
2022-11-16T19:28:40.809Z,5.90
2022-11-16T19:31:10.683Z,5.53
2022-11-16T19:33:38.678Z,7.10
2022-11-16T19:36:06.930Z,4.38
2022-11-16T19:38:34.381Z,6.17
2022-11-16T19:41:01.424Z,8.35
2022-11-16T19:43:28.464Z,6.72
2022-11-16T19:45:55.580Z,5.35
2022-11-16T19:48:22.702Z,6.32
2022-11-16T19:50:49.757Z,4.83
2022-11-16T19:53:16.884Z,6.40
2022-11-16T19:55:44.237Z,4.95
2022-11-16T19:58:14.323Z,6.07
2022-11-16T20:00:41.385Z,5.05
2022-11-16T20:03:08.467Z,6.20
2022-11-16T20:05:35.496Z,4.57
2022-11-16T20:08:02.582Z,5.95
2022-11-16T20:10:30.690Z,6.90
2022-11-16T20:12:58.269Z,5.63
2022-11-16T20:15:25.900Z,4.10
2022-11-16T20:17:53.334Z,5.07
2022-11-16T20:20:20.645Z,6.00
2022-11-16T20:22:48.656Z,7.55
2022-11-16T20:25:16.672Z,7.53
2022-11-16T20:27:43.741Z,6.17
2022-11-16T20:30:11.416Z,7.15
2022-11-16T20:32:38.446Z,4.15
2022-11-16T20:35:05.662Z,5.75
2022-11-16T20:37:32.732Z,5.93
2022-11-16T20:39:59.825Z,7.37
2022-11-16T20:42:26.978Z,4.78
2022-11-16T20:44:54.089Z,4.47
2022-11-16T20:47:21.254Z,5.32
2022-11-16T20:49:48.370Z,5.85
2022-11-16T20:52:15.675Z,5.50
2022-11-16T20:54:42.870Z,6.80
2022-11-16T20:57:10.056Z,4.93
2022-11-16T20:59:37.155Z,4.75
2022-11-16T21:02:04.395Z,6.90
2022-11-16T21:04:31.589Z,6.87
2022-11-16T21:06:58.791Z,5.00
2022-11-16T21:09:25.986Z,6.38
2022-11-16T21:12:11.949Z,8.13
2022-11-16T21:14:39.077Z,7.55
2022-11-16T21:17:06.192Z,4.67
2022-11-16T21:19:33.352Z,4.40
2022-11-16T21:22:00.499Z,6.63
2022-11-16T21:24:28.279Z,3.53
2022-11-16T21:26:55.415Z,4.93
2022-11-16T21:29:25.826Z,3.93
2022-11-16T21:31:52.875Z,4.80
2022-11-16T21:34:20.192Z,6.00
2022-11-16T21:36:47.526Z,6.90
2022-11-16T21:39:14.578Z,5.43
2022-11-16T21:41:41.640Z,5.73
2022-11-16T21:44:08.737Z,3.90
2022-11-16T21:46:35.832Z,4.57
2022-11-16T21:49:03.058Z,4.30
2022-11-16T21:51:30.789Z,7.70
2022-11-16T21:53:57.938Z,6.27
2022-11-16T21:56:26.092Z,3.83
2022-11-16T21:58:53.682Z,5.13
2022-11-16T22:01:21.032Z,5.53
2022-11-16T22:04:08.266Z,7.63
2022-11-16T22:06:54.188Z,4.47
2022-11-16T22:09:21.579Z,5.05
2022-11-16T22:11:48.639Z,4.72
2022-11-16T22:14:15.677Z,7.45
2022-11-16T22:16:42.710Z,6.32
2022-11-16T22:19:09.798Z,8.30
2022-11-16T22:21:36.844Z,5.40
2022-11-16T22:24:04.002Z,4.68
2022-11-16T22:26:31.141Z,5.47
2022-11-16T22:28:59.160Z,4.45
2022-11-16T22:31:26.338Z,4.70
2022-11-16T22:33:53.830Z,5.20
2022-11-16T22:36:20.952Z,5.80
2022-11-16T22:38:48.111Z,6.43
2022-11-16T22:41:15.322Z,4.32
2022-11-16T22:43:42.519Z,5.53
2022-11-16T22:46:10.069Z,6.75
2022-11-16T22:48:38.712Z,4.57
2022-11-16T22:51:06.968Z,6.40
2022-11-16T22:53:34.859Z,5.32
2022-11-16T22:56:06.406Z,7.53
2022-11-16T22:58:33.805Z,5.22
2022-11-16T23:01:01.643Z,8.05
2022-11-16T23:03:29.507Z,6.60
2022-11-16T23:05:56.698Z,8.10
2022-11-16T23:08:24.948Z,6.93
2022-11-16T23:11:21.224Z,8.63
2022-11-16T23:14:07.680Z,7.82
2022-11-16T23:16:35.032Z,7.50
2022-11-16T23:19:02.134Z,8.20
2022-11-16T23:21:47.895Z,9.13
2022-11-16T23:24:35.002Z,8.48
2022-11-16T23:27:22.170Z,7.38
2022-11-16T23:29:49.522Z,6.93
2022-11-16T23:32:16.694Z,5.28
2022-11-16T23:34:43.864Z,7.63
2022-11-16T23:37:11.065Z,6.20
2022-11-16T23:39:38.201Z,6.68
2022-11-16T23:42:23.978Z,6.13
2022-11-16T23:44:51.023Z,6.05
2022-11-16T23:47:18.081Z,4.73
2022-11-16T23:49:45.122Z,5.57
2022-11-16T23:52:12.291Z,33.92
2022-11-16T23:54:39.346Z,6.78
2022-11-16T23:57:06.729Z,9.35
2022-11-16T23:59:33.846Z,5.17
